createdAt,value
2023-02-09T00:00:49.216Z,99733.28
2023-02-09T00:03:18.554Z,99726.81
2023-02-09T00:05:48.471Z,99733.38
2023-02-09T00:08:19.958Z,99729.19
2023-02-09T00:10:49.532Z,99727.28
2023-02-09T00:13:24.506Z,99719.56
2023-02-09T00:15:56.332Z,99725.38
2023-02-09T00:18:28.575Z,99720.22
2023-02-09T00:21:00.737Z,99721.16
2023-02-09T00:23:33.211Z,99722.59
2023-02-09T00:26:03.310Z,99713.97
2023-02-09T00:28:33.036Z,99721.50
2023-02-09T00:31:07.969Z,99718.44
2023-02-09T00:33:38.668Z,99715.09
2023-02-09T00:36:11.332Z,99720.06
2023-02-09T00:38:43.774Z,99710.09
2023-02-09T00:41:15.654Z,99712.84
2023-02-09T00:43:46.349Z,99718.13
2023-02-09T00:46:16.763Z,99708.78
2023-02-09T00:48:47.374Z,99716.31
2023-02-09T00:51:16.680Z,99711.41
2023-02-09T00:53:47.398Z,99708.22
2023-02-09T00:56:16.701Z,99707.09
2023-02-09T00:58:46.103Z,99698.78
2023-02-09T01:01:15.892Z,99703.47
2023-02-09T01:03:45.389Z,99705.66
2023-02-09T01:06:15.602Z,99706.69
2023-02-09T01:08:47.308Z,99704.47
2023-02-09T01:11:18.968Z,99702.69
2023-02-09T01:13:48.790Z,99705.31
2023-02-09T01:16:21.023Z,99711.41
2023-02-09T01:18:50.813Z,99708.13
2023-02-09T01:21:23.629Z,99700.47
2023-02-09T01:23:54.891Z,99704.69
2023-02-09T01:26:24.900Z,99707.22
2023-02-09T01:28:55.466Z,99704.69
2023-02-09T01:31:27.646Z,99712.75
2023-02-09T01:33:59.787Z,99704.09
2023-02-09T01:36:29.707Z,99699.81
2023-02-09T01:39:05.921Z,99700.75
2023-02-09T01:41:36.800Z,99700.69
2023-02-09T01:44:29.368Z,99696.59
2023-02-09T01:46:58.900Z,99693.44
2023-02-09T01:49:29.364Z,99696.13
2023-02-09T01:52:08.582Z,99695.50
2023-02-09T01:54:44.956Z,99686.59
2023-02-09T01:57:19.103Z,99680.81
2023-02-09T01:59:58.049Z,99675.56
2023-02-09T02:02:28.265Z,99685.16
2023-02-09T02:04:58.431Z,99679.78
2023-02-09T02:07:35.419Z,99675.94
2023-02-09T02:10:07.896Z,99677.66
2023-02-09T02:12:40.453Z,99669.22
2023-02-09T02:15:10.916Z,99678.59
2023-02-09T02:18:04.413Z,99671.00
2023-02-09T02:21:29.871Z,99674.44
2023-02-09T02:24:29.817Z,99672.06
2023-02-09T02:27:03.730Z,99672.06
2023-02-09T02:30:13.606Z,99670.50
2023-02-09T02:32:56.924Z,99668.88
2023-02-09T02:35:38.204Z,99668.81
2023-02-09T02:38:19.749Z,99666.06
2023-02-09T02:41:05.665Z,99661.34
2023-02-09T02:43:50.068Z,99661.59
2023-02-09T02:46:32.396Z,99650.63
2023-02-09T02:49:11.141Z,99652.00
2023-02-09T02:51:44.812Z,99650.09
2023-02-09T02:54:21.723Z,99647.50
2023-02-09T02:56:58.451Z,99645.94
2023-02-09T02:59:33.883Z,99653.59
2023-02-09T03:02:10.087Z,99649.44
2023-02-09T03:04:45.219Z,99642.09
2023-02-09T03:07:18.700Z,99648.09
2023-02-09T03:09:52.307Z,99658.09
2023-02-09T03:12:36.688Z,99658.22
2023-02-09T03:15:23.792Z,99657.13
2023-02-09T03:18:06.603Z,99653.63
2023-02-09T03:20:50.890Z,99658.84
2023-02-09T03:23:33.947Z,99662.41
2023-02-09T03:26:13.184Z,99656.59
2023-02-09T03:28:47.276Z,99654.28
2023-02-09T03:31:18.214Z,99653.19
2023-02-09T03:33:48.920Z,99646.56
2023-02-09T03:36:22.779Z,99645.19
2023-02-09T03:38:53.116Z,99645.13
2023-02-09T03:41:23.108Z,99653.56
2023-02-09T03:44:09.993Z,99645.84
2023-02-09T03:46:40.022Z,99652.38
2023-02-09T03:49:09.487Z,99651.78
2023-02-09T03:51:40.297Z,99647.72
2023-02-09T03:54:09.745Z,99647.00
2023-02-09T03:56:39.104Z,99649.78
2023-02-09T03:59:09.087Z,99637.94
2023-02-09T04:01:39.290Z,99643.22
2023-02-09T04:04:08.058Z,99656.94
2023-02-09T04:06:39.003Z,99647.28
2023-02-09T04:09:09.813Z,99653.41
2023-02-09T04:11:39.263Z,99652.50
2023-02-09T04:14:10.371Z,99649.38
2023-02-09T04:16:41.513Z,99644.19
2023-02-09T04:19:11.298Z,99654.53
2023-02-09T04:21:41.522Z,99653.47
2023-02-09T04:24:11.361Z,99658.28
2023-02-09T04:26:41.501Z,99659.84
2023-02-09T04:29:10.924Z,99653.84
2023-02-09T04:31:39.376Z,99654.81
2023-02-09T04:34:09.331Z,99656.47
2023-02-09T04:36:38.266Z,99651.19
2023-02-09T04:39:09.163Z,99646.09
2023-02-09T04:41:39.557Z,99646.94
2023-02-09T04:44:08.840Z,99649.59
2023-02-09T04:46:38.659Z,99649.56
2023-02-09T04:49:07.569Z,99648.75
2023-02-09T04:51:38.192Z,99655.84
2023-02-09T04:54:08.528Z,99649.84
2023-02-09T04:56:38.896Z,99656.63
2023-02-09T04:59:27.072Z,99658.31
2023-02-09T05:01:56.436Z,99658.53
2023-02-09T05:04:25.357Z,99658.69
2023-02-09T05:06:55.451Z,99656.97
2023-02-09T05:09:25.829Z,99663.75
2023-02-09T05:11:55.811Z,99672.22
2023-02-09T05:14:25.700Z,99672.25
2023-02-09T05:16:55.759Z,99675.06
2023-02-09T05:19:25.771Z,99681.72
2023-02-09T05:21:54.434Z,99678.44
2023-02-09T05:24:25.894Z,99669.84
2023-02-09T05:26:55.225Z,99668.22
2023-02-09T05:29:24.139Z,99668.22
2023-02-09T05:31:53.019Z,99667.38
2023-02-09T05:34:23.936Z,99666.53
2023-02-09T05:36:53.912Z,99664.00
2023-02-09T05:39:25.017Z,99664.22
2023-02-09T05:42:12.439Z,99665.91
2023-02-09T05:44:42.716Z,99668.69
2023-02-09T05:47:12.123Z,99665.47
2023-02-09T05:49:41.780Z,99667.41
2023-02-09T05:52:13.146Z,99677.63
2023-02-09T05:54:44.519Z,99663.34
2023-02-09T05:57:13.792Z,99675.06
2023-02-09T05:59:43.788Z,99667.53
2023-02-09T06:02:12.890Z,99666.78
2023-02-09T06:04:44.086Z,99671.13
2023-02-09T06:07:14.013Z,99671.41
2023-02-09T06:09:45.448Z,99675.50
2023-02-09T06:12:14.895Z,99667.22
2023-02-09T06:14:44.566Z,99668.06
2023-02-09T06:17:13.658Z,99667.31
2023-02-09T06:19:43.103Z,99671.41
2023-02-09T06:22:13.170Z,99671.50
2023-02-09T06:24:44.583Z,99675.94
2023-02-09T06:27:14.854Z,99665.09
2023-02-09T06:29:44.348Z,99671.16
2023-02-09T06:32:13.870Z,99672.94
2023-02-09T06:34:44.054Z,99669.34
2023-02-09T06:37:14.050Z,99676.88
2023-02-09T06:39:45.553Z,99676.78
2023-02-09T06:42:15.163Z,99682.84
2023-02-09T06:44:45.665Z,99693.88
2023-02-09T06:47:14.054Z,99696.41
2023-02-09T06:49:44.096Z,99697.34
2023-02-09T06:52:13.855Z,99697.44
2023-02-09T06:54:45.185Z,99698.41
2023-02-09T06:57:14.822Z,99696.88
2023-02-09T06:59:44.883Z,99695.06
2023-02-09T07:02:14.929Z,99701.03
2023-02-09T07:04:44.952Z,99698.41
2023-02-09T07:07:14.185Z,99701.19
2023-02-09T07:09:45.011Z,99698.63
2023-02-09T07:12:14.630Z,99696.94
2023-02-09T07:14:44.692Z,99703.72
2023-02-09T07:17:14.726Z,99708.00
2023-02-09T07:19:44.480Z,99710.53
2023-02-09T07:22:15.166Z,99702.91
2023-02-09T07:24:47.783Z,99704.38
2023-02-09T07:27:18.328Z,99703.50
2023-02-09T07:29:47.713Z,99714.47
2023-02-09T07:32:17.174Z,99709.34
2023-02-09T07:34:47.289Z,99710.94
2023-02-09T07:37:17.948Z,99712.81
2023-02-09T07:39:50.404Z,99711.03
2023-02-09T07:42:20.545Z,99717.00
2023-02-09T07:44:50.632Z,99717.91
2023-02-09T07:47:19.599Z,99715.38
2023-02-09T07:49:49.785Z,99717.97
2023-02-09T07:52:19.318Z,99722.09
2023-02-09T07:54:52.961Z,99714.38
2023-02-09T07:57:22.473Z,99719.47
2023-02-09T07:59:53.082Z,99710.94
2023-02-09T08:02:34.732Z,99720.22
2023-02-09T08:05:07.978Z,99720.06
2023-02-09T08:07:39.044Z,99719.06
2023-02-09T08:10:12.951Z,99714.91
2023-02-09T08:12:59.978Z,99718.25
2023-02-09T08:15:36.505Z,99724.88
2023-02-09T08:18:14.212Z,99730.88
2023-02-09T08:20:47.423Z,99734.94
2023-02-09T08:23:23.971Z,99734.84
2023-02-09T08:25:55.677Z,99730.59
2023-02-09T08:28:38.279Z,99738.25
2023-02-09T08:31:12.777Z,99733.06
2023-02-09T08:33:41.708Z,99725.31
2023-02-09T08:36:13.874Z,99727.00
2023-02-09T08:38:44.345Z,99737.09
2023-02-09T08:41:17.498Z,99729.31
2023-02-09T08:43:50.754Z,99721.53
2023-02-09T08:46:21.470Z,99716.34
2023-02-09T08:48:51.060Z,99712.81
2023-02-09T08:51:20.186Z,99707.63
2023-02-09T08:53:52.835Z,99699.00
2023-02-09T08:56:24.440Z,99709.19
2023-02-09T08:58:53.476Z,99712.44
2023-02-09T09:01:23.803Z,99711.47
2023-02-09T09:03:54.501Z,99716.41
2023-02-09T09:06:23.647Z,99715.47
2023-02-09T09:08:53.353Z,99707.72
2023-02-09T09:11:24.471Z,99713.56
2023-02-09T09:13:55.320Z,99716.75
2023-02-09T09:16:25.952Z,99706.44
2023-02-09T09:18:55.676Z,99709.69
2023-02-09T09:21:26.480Z,99701.91
2023-02-09T09:23:58.031Z,99700.94
2023-02-09T09:26:30.463Z,99698.22
2023-02-09T09:29:00.265Z,99703.16
2023-02-09T09:31:34.362Z,99706.41
2023-02-09T09:34:04.684Z,99712.19
2023-02-09T09:36:34.432Z,99707.78
2023-02-09T09:39:03.466Z,99714.38
2023-02-09T09:41:38.425Z,99720.19
2023-02-09T09:44:19.136Z,99730.19
2023-02-09T09:46:53.648Z,99727.38
2023-02-09T09:49:29.801Z,99729.72
2023-02-09T09:52:07.790Z,99725.28
2023-02-09T09:54:39.925Z,99731.00
2023-02-09T09:57:22.548Z,99729.06
2023-02-09T09:59:53.598Z,99722.00
2023-02-09T10:02:33.656Z,99733.69
2023-02-09T10:05:18.526Z,99726.69
2023-02-09T10:07:58.644Z,99719.69
2023-02-09T10:10:40.084Z,99717.69
2023-02-09T10:13:22.012Z,99709.03
2023-02-09T10:15:52.680Z,99715.56
2023-02-09T10:18:25.942Z,99714.44
2023-02-09T10:20:58.292Z,99714.19
2023-02-09T10:23:38.072Z,99719.88
2023-02-09T10:26:22.406Z,99716.19
2023-02-09T10:28:56.752Z,99721.81
2023-02-09T10:31:33.808Z,99725.88
2023-02-09T10:34:12.432Z,99717.91
2023-02-09T10:36:51.602Z,99730.34
2023-02-09T10:39:24.609Z,99734.28
2023-02-09T10:41:56.895Z,99732.31
2023-02-09T10:44:31.875Z,99714.84
2023-02-09T10:47:14.177Z,99721.91
2023-02-09T10:49:43.332Z,99727.44
2023-02-09T10:52:21.680Z,99716.28
2023-02-09T10:54:57.606Z,99722.03
2023-02-09T10:57:31.278Z,99718.38
2023-02-09T11:00:22.520Z,99720.69
2023-02-09T11:02:55.183Z,99715.09
2023-02-09T11:05:33.371Z,99702.69
2023-02-09T11:08:18.015Z,99703.09
2023-02-09T11:11:06.178Z,99697.69
2023-02-09T11:13:43.035Z,99696.41
2023-02-09T11:16:30.343Z,99689.94
2023-02-09T11:19:11.277Z,99694.78
2023-02-09T11:22:02.360Z,99684.94
2023-02-09T11:25:02.255Z,99685.31
2023-02-09T11:27:56.381Z,99678.25
2023-02-09T11:30:49.624Z,99669.41
2023-02-09T11:33:35.128Z,99669.22
2023-02-09T11:36:24.702Z,99674.03
2023-02-09T11:39:00.252Z,99672.84
2023-02-09T11:41:52.092Z,99672.53
2023-02-09T11:44:32.044Z,99663.56
2023-02-09T11:47:07.055Z,99666.75
2023-02-09T11:49:47.154Z,99666.28
2023-02-09T11:52:23.977Z,99664.84
2023-02-09T11:55:02.100Z,99654.41
2023-02-09T11:57:42.029Z,99661.72
2023-02-09T12:00:26.123Z,99658.91
2023-02-09T12:03:03.960Z,99652.56
2023-02-09T12:05:34.762Z,99660.94
2023-02-09T12:08:40.011Z,99657.16
2023-02-09T12:11:37.597Z,99642.06
2023-02-09T12:14:31.200Z,99652.84
2023-02-09T12:17:13.958Z,99648.38
2023-02-09T12:19:48.439Z,99656.69
2023-02-09T12:23:01.125Z,99648.59
2023-02-09T12:25:54.074Z,99649.16
2023-02-09T12:28:47.123Z,99649.75
2023-02-09T12:31:24.750Z,99643.44
2023-02-09T12:34:21.702Z,99643.13
2023-02-09T12:37:28.962Z,99639.47
2023-02-09T12:40:36.645Z,99649.44
2023-02-09T12:43:28.397Z,99646.53
2023-02-09T12:46:54.173Z,99648.75
2023-02-09T12:49:34.139Z,99644.94
2023-02-09T12:52:20.212Z,99648.91
2023-02-09T12:54:53.298Z,99642.44
2023-02-09T12:57:57.586Z,99638.53
2023-02-09T13:00:57.142Z,99626.13
2023-02-09T13:03:30.638Z,99629.25
2023-02-09T13:06:08.938Z,99625.59
2023-02-09T13:08:50.656Z,99616.59
2023-02-09T13:11:33.936Z,99617.84
2023-02-09T13:14:11.077Z,99613.22
2023-02-09T13:17:36.254Z,99613.81
2023-02-09T13:21:03.950Z,99603.84
2023-02-09T13:23:42.969Z,99607.09
2023-02-09T13:26:23.413Z,99611.91
2023-02-09T13:29:19.663Z,99610.97
2023-02-09T13:32:09.918Z,99620.81
2023-02-09T13:34:49.260Z,99615.41
2023-02-09T13:37:31.305Z,99616.78
2023-02-09T13:40:04.252Z,99612.19
2023-02-09T13:42:38.777Z,99605.00
2023-02-09T13:45:23.293Z,99607.09
2023-02-09T13:47:53.394Z,99611.88
2023-02-09T13:50:24.631Z,99607.28
2023-02-09T13:52:54.257Z,99599.16
2023-02-09T13:55:26.628Z,99597.94
2023-02-09T13:58:02.560Z,99595.00
2023-02-09T14:00:42.190Z,99599.88
2023-02-09T14:03:20.072Z,99607.34
2023-02-09T14:06:00.000Z,99598.47
2023-02-09T14:08:31.739Z,99607.59
2023-02-09T14:11:14.902Z,99603.88
2023-02-09T14:13:50.649Z,99596.69
2023-02-09T14:16:25.320Z,99594.63
2023-02-09T14:18:55.617Z,99594.44
2023-02-09T14:21:32.946Z,99595.00
2023-02-09T14:24:20.270Z,99597.19
2023-02-09T14:26:56.313Z,99606.31
2023-02-09T14:29:28.762Z,99604.44
2023-02-09T14:32:01.595Z,99599.00
2023-02-09T14:34:38.777Z,99597.03
2023-02-09T14:37:34.947Z,99603.66
2023-02-09T14:40:25.100Z,99600.34
2023-02-09T14:43:04.132Z,99594.00
2023-02-09T14:45:40.840Z,99596.06
2023-02-09T14:48:38.838Z,99596.69
2023-02-09T14:51:18.048Z,99598.97
2023-02-09T14:53:48.266Z,99597.84
2023-02-09T14:56:25.918Z,99593.28
2023-02-09T14:58:56.990Z,99594.34
2023-02-09T15:01:27.048Z,99589.47
2023-02-09T15:03:58.549Z,99591.84
2023-02-09T15:06:33.075Z,99595.03
2023-02-09T15:09:03.488Z,99593.28
2023-02-09T15:11:49.540Z,99596.16
2023-02-09T15:14:27.562Z,99596.28
2023-02-09T15:16:57.590Z,99607.47
2023-02-09T15:19:30.625Z,99604.75
2023-02-09T15:22:07.277Z,99610.13
2023-02-09T15:24:38.067Z,99618.19
2023-02-09T15:27:08.547Z,99619.84
2023-02-09T15:29:40.594Z,99621.16
2023-02-09T15:32:16.860Z,99630.16
2023-02-09T15:34:47.904Z,99626.00
2023-02-09T15:37:24.570Z,99625.66
2023-02-09T15:39:58.546Z,99634.66
2023-02-09T15:42:44.576Z,99642.56
2023-02-09T15:45:37.875Z,99629.97
2023-02-09T15:48:08.857Z,99633.03
2023-02-09T15:50:44.187Z,99637.38
2023-02-09T15:53:19.399Z,99630.75
2023-02-09T15:55:48.658Z,99629.19
2023-02-09T15:58:35.440Z,99634.09
2023-02-09T16:01:06.108Z,99631.88
2023-02-09T16:03:36.145Z,99633.03
2023-02-09T16:06:17.174Z,99628.22
2023-02-09T16:08:47.932Z,99634.53
2023-02-09T16:11:22.935Z,99638.94
2023-02-09T16:13:52.620Z,99638.41
2023-02-09T16:16:24.782Z,99644.03
2023-02-09T16:18:54.385Z,99660.41
2023-02-09T16:21:31.789Z,99662.34
2023-02-09T16:24:06.307Z,99660.34
2023-02-09T16:26:37.682Z,99671.94
2023-02-09T16:29:12.176Z,99673.75
2023-02-09T16:31:42.298Z,99674.13
2023-02-09T16:34:15.961Z,99679.47
2023-02-09T16:36:48.666Z,99684.81
2023-02-09T16:39:20.233Z,99687.75
2023-02-09T16:41:51.137Z,99688.94
2023-02-09T16:44:24.682Z,99697.22
2023-02-09T16:46:57.244Z,99689.00
2023-02-09T16:49:37.423Z,99687.44
2023-02-09T16:52:18.361Z,99697.66
2023-02-09T16:54:50.349Z,99694.34
2023-02-09T16:57:23.185Z,99698.00
2023-02-09T16:59:53.140Z,99706.53
2023-02-09T17:02:37.180Z,99714.16
2023-02-09T17:05:20.956Z,99722.00
2023-02-09T17:07:56.640Z,99727.56
2023-02-09T17:10:29.123Z,99723.31
2023-02-09T17:12:59.072Z,99723.00
2023-02-09T17:15:32.348Z,99745.34
2023-02-09T17:18:06.056Z,99749.50
2023-02-09T17:20:42.201Z,99751.50
2023-02-09T17:23:18.199Z,99758.75
2023-02-09T17:25:48.159Z,99761.63
2023-02-09T17:28:18.773Z,99768.53
2023-02-09T17:30:49.609Z,99754.75
2023-02-09T17:33:24.848Z,99761.81
2023-02-09T17:38:47.738Z,99770.00
2023-02-09T17:41:21.129Z,99774.09
2023-02-09T17:43:53.652Z,99796.19
2023-02-09T17:46:24.187Z,99788.91
2023-02-09T17:48:53.621Z,99783.88
2023-02-09T17:51:30.282Z,99783.75
2023-02-09T17:54:01.814Z,99779.44
2023-02-09T17:56:31.335Z,99786.91
2023-02-09T17:59:03.158Z,99791.63
2023-02-09T18:01:33.371Z,99783.31
2023-02-09T18:04:04.240Z,99790.81
2023-02-09T18:06:38.314Z,99785.66
2023-02-09T18:09:13.204Z,99797.84
2023-02-09T18:11:58.678Z,99799.25
2023-02-09T18:14:31.000Z,99797.06
2023-02-09T18:17:00.945Z,99795.28
2023-02-09T18:19:29.488Z,99803.06
2023-02-09T18:22:00.944Z,99799.91
2023-02-09T18:24:34.885Z,99799.06
2023-02-09T18:27:05.094Z,99816.81
2023-02-09T18:29:35.161Z,99815.91
2023-02-09T18:32:05.952Z,99822.50
2023-02-09T18:34:35.259Z,99818.69
2023-02-09T18:37:03.633Z,99816.81
2023-02-09T18:39:36.767Z,99829.75
2023-02-09T18:42:06.309Z,99827.72
2023-02-09T18:44:35.495Z,99824.41
2023-02-09T18:47:04.541Z,99818.47
2023-02-09T18:49:34.515Z,99824.69
2023-02-09T18:52:05.270Z,99837.84
2023-02-09T18:54:35.833Z,99849.19
2023-02-09T18:57:06.553Z,99854.19
2023-02-09T18:59:36.313Z,99854.66
2023-02-09T19:02:05.969Z,99855.53
2023-02-09T19:04:34.915Z,99853.81
2023-02-09T19:07:04.150Z,99858.38
2023-02-09T19:09:34.445Z,99859.16
2023-02-09T19:12:04.199Z,99858.13
2023-02-09T19:14:41.059Z,99867.19
2023-02-09T19:17:15.102Z,99862.03
2023-02-09T19:19:45.522Z,99858.25
2023-02-09T19:22:19.397Z,99853.28
2023-02-09T19:24:52.988Z,99859.41
2023-02-09T19:27:21.737Z,99867.81
2023-02-09T19:29:55.749Z,99862.25
2023-02-09T19:32:27.061Z,99867.31
2023-02-09T19:34:56.524Z,99872.63
2023-02-09T19:37:26.104Z,99884.69
2023-02-09T19:40:05.164Z,99883.88
2023-02-09T19:42:34.368Z,99890.75
2023-02-09T19:45:03.940Z,99896.03
2023-02-09T19:47:32.756Z,99900.19
2023-02-09T19:50:02.471Z,99896.25
2023-02-09T19:52:31.642Z,99902.81
2023-02-09T19:55:01.967Z,99903.75
2023-02-09T19:57:31.330Z,99897.22
2023-02-09T20:00:01.091Z,99907.66
2023-02-09T20:02:31.321Z,99906.66
2023-02-09T20:05:01.387Z,99915.28
2023-02-09T20:07:31.034Z,99916.31
2023-02-09T20:10:01.061Z,99919.72
2023-02-09T20:12:30.397Z,99915.91
2023-02-09T20:14:59.394Z,99921.34
2023-02-09T20:17:30.728Z,99918.91
2023-02-09T20:19:59.142Z,99925.41
2023-02-09T20:22:28.148Z,99922.56
2023-02-09T20:24:57.692Z,99917.53
2023-02-09T20:27:28.781Z,99915.22
2023-02-09T20:30:01.857Z,99922.81
2023-02-09T20:32:32.108Z,99913.06
2023-02-09T20:35:02.087Z,99915.78
2023-02-09T20:37:32.702Z,99918.19
2023-02-09T20:40:02.232Z,99916.53
2023-02-09T20:42:50.026Z,99925.53
2023-02-09T20:45:37.508Z,99914.19
2023-02-09T20:48:08.005Z,99919.66
2023-02-09T20:50:37.339Z,99926.09
2023-02-09T20:53:07.344Z,99926.78
2023-02-09T20:55:36.938Z,99934.25
2023-02-09T20:58:08.668Z,99925.16
2023-02-09T21:00:37.730Z,99934.81
2023-02-09T21:03:08.546Z,99941.47
2023-02-09T21:05:37.587Z,99926.09
2023-02-09T21:08:09.846Z,99931.22
2023-02-09T21:10:39.885Z,99935.66
2023-02-09T21:13:11.901Z,99937.25
2023-02-09T21:15:44.035Z,99937.53
2023-02-09T21:18:12.603Z,99940.41
2023-02-09T21:20:41.589Z,99944.06
2023-02-09T21:23:11.168Z,99944.06
2023-02-09T21:25:40.750Z,99940.59
2023-02-09T21:28:12.106Z,99945.09
2023-02-09T21:30:44.156Z,99942.53
2023-02-09T21:33:14.181Z,99946.88
2023-02-09T21:35:43.085Z,99951.38
2023-02-09T21:38:13.662Z,99954.03
2023-02-09T21:40:43.031Z,99958.25
2023-02-09T21:43:13.452Z,99960.50
2023-02-09T21:45:43.093Z,99965.50
2023-02-09T21:48:12.046Z,99963.69
2023-02-09T21:50:41.581Z,99959.41
2023-02-09T21:53:12.131Z,99950.03
2023-02-09T21:55:42.041Z,99958.81
2023-02-09T21:58:12.945Z,99960.50
2023-02-09T22:00:42.541Z,99957.41
2023-02-09T22:03:12.114Z,99961.09
2023-02-09T22:05:43.048Z,99959.97
2023-02-09T22:08:13.591Z,99962.88
2023-02-09T22:10:43.605Z,99963.97
2023-02-09T22:13:14.841Z,99962.16
2023-02-09T22:15:44.844Z,99958.28
2023-02-09T22:18:15.500Z,99962.56
2023-02-09T22:20:46.987Z,99958.97
2023-02-09T22:23:16.718Z,99963.53
2023-02-09T22:25:47.181Z,99958.44
2023-02-09T22:28:17.030Z,99970.78
2023-02-09T22:30:47.199Z,99965.41
2023-02-09T22:33:16.211Z,99970.13
2023-02-09T22:35:46.355Z,99972.09
2023-02-09T22:38:15.710Z,99971.38
2023-02-09T22:40:45.158Z,99969.19
2023-02-09T22:43:16.478Z,99968.44
2023-02-09T22:45:46.498Z,99978.31
2023-02-09T22:48:16.112Z,99971.28
2023-02-09T22:50:45.507Z,99970.38
2023-02-09T22:53:14.932Z,99968.78
2023-02-09T22:55:46.424Z,99970.50
2023-02-09T22:58:18.164Z,99969.59
2023-02-09T23:00:48.062Z,99968.91
2023-02-09T23:03:16.987Z,99970.31
2023-02-09T23:05:46.217Z,99963.19
2023-02-09T23:08:16.357Z,99968.50
2023-02-09T23:10:44.764Z,99967.88
2023-02-09T23:13:15.167Z,99978.94
2023-02-09T23:15:46.355Z,99972.63
2023-02-09T23:18:15.949Z,99972.56
2023-02-09T23:20:47.683Z,99973.22
2023-02-09T23:23:17.723Z,99969.72
2023-02-09T23:25:47.295Z,99975.66
2023-02-09T23:28:18.124Z,99975.78
2023-02-09T23:30:50.309Z,99981.84
2023-02-09T23:33:20.061Z,99970.34
2023-02-09T23:35:49.664Z,99974.56
2023-02-09T23:38:20.080Z,99971.97
2023-02-09T23:40:49.050Z,99982.91
2023-02-09T23:43:18.333Z,99980.63
2023-02-09T23:45:49.167Z,99989.31
2023-02-09T23:48:18.203Z,99984.44
2023-02-09T23:50:48.088Z,99993.66
2023-02-09T23:53:18.023Z,100002.13
2023-02-09T23:55:52.359Z,100005.00
2023-02-09T23:58:21.772Z,100001.38
